createdAt,value
2024-01-12T00:00:06.087Z,18.03
2024-01-12T00:02:39.429Z,17.90
2024-01-12T00:05:08.466Z,17.57
2024-01-12T00:07:35.598Z,17.37
2024-01-12T00:10:03.053Z,18.13
2024-01-12T00:12:30.093Z,17.87
2024-01-12T00:14:57.841Z,17.83
2024-01-12T00:17:25.377Z,17.83
2024-01-12T00:19:52.482Z,18.23
2024-01-12T00:22:19.703Z,18.60
2024-01-12T00:24:46.761Z,18.57
2024-01-12T00:27:14.090Z,19.03
2024-01-12T00:29:41.237Z,18.63
2024-01-12T00:32:08.420Z,19.17
2024-01-12T00:34:35.620Z,18.30
2024-01-12T00:37:02.705Z,18.27
2024-01-12T00:39:29.835Z,18.73
2024-01-12T00:41:56.919Z,18.37
2024-01-12T00:44:24.163Z,19.07
2024-01-12T00:46:52.770Z,19.43
2024-01-12T00:49:20.441Z,18.17
2024-01-12T00:51:48.285Z,18.63
2024-01-12T00:54:15.854Z,18.63
2024-01-12T00:56:43.016Z,19.23
2024-01-12T00:59:10.163Z,18.17
2024-01-12T01:01:37.362Z,20.00
2024-01-12T01:04:05.631Z,18.50
2024-01-12T01:06:32.729Z,18.77
2024-01-12T01:09:00.001Z,19.67
2024-01-12T01:11:27.139Z,18.57
2024-01-12T01:13:54.351Z,18.47
2024-01-12T01:16:21.817Z,18.97
2024-01-12T01:18:49.482Z,19.00
2024-01-12T01:21:16.668Z,19.43
2024-01-12T01:23:43.789Z,19.17
2024-01-12T01:26:10.934Z,18.90
2024-01-12T01:28:38.117Z,18.43
2024-01-12T01:31:05.361Z,19.77
2024-01-12T01:33:32.491Z,20.20
2024-01-12T01:35:59.696Z,20.03
2024-01-12T01:38:26.781Z,19.90
2024-01-12T01:40:53.902Z,19.13
2024-01-12T01:43:22.932Z,19.13
2024-01-12T01:45:50.410Z,19.47
2024-01-12T01:48:17.659Z,18.97
2024-01-12T01:50:44.896Z,18.17
2024-01-12T01:53:12.167Z,19.70
2024-01-12T01:55:39.381Z,19.50
2024-01-12T01:58:06.706Z,19.17
2024-01-12T02:00:33.936Z,18.37
2024-01-12T02:03:02.673Z,19.00
2024-01-12T02:05:31.706Z,19.83
2024-01-12T02:07:58.917Z,19.77
2024-01-12T02:10:26.568Z,21.73
2024-01-12T02:12:53.721Z,20.23
2024-01-12T02:15:21.713Z,19.97
2024-01-12T02:17:49.199Z,20.00
2024-01-12T02:20:16.453Z,19.03
2024-01-12T02:22:43.628Z,19.57
2024-01-12T02:25:11.220Z,19.27
2024-01-12T02:27:38.336Z,25.03
2024-01-12T02:30:06.377Z,28.30
2024-01-12T02:32:33.985Z,30.20
2024-01-12T02:35:01.084Z,36.60
2024-01-12T02:37:28.088Z,37.37
2024-01-12T02:39:55.187Z,33.20
2024-01-12T02:42:22.227Z,29.37
2024-01-12T02:44:49.393Z,23.00
2024-01-12T02:47:16.514Z,22.37
2024-01-12T02:49:44.565Z,21.57
2024-01-12T02:52:11.656Z,21.80
2024-01-12T02:54:38.915Z,20.57
2024-01-12T02:57:06.437Z,21.40
2024-01-12T02:59:33.535Z,21.60
2024-01-12T03:02:00.727Z,21.17
2024-01-12T03:04:27.807Z,22.03
2024-01-12T03:06:54.853Z,20.93
2024-01-12T03:09:23.625Z,21.13
2024-01-12T03:11:50.834Z,21.23
2024-01-12T03:14:18.690Z,22.07
2024-01-12T03:16:45.844Z,22.03
2024-01-12T03:19:13.025Z,22.23
2024-01-12T03:21:40.160Z,22.07
2024-01-12T03:24:07.305Z,23.33
2024-01-12T03:26:38.912Z,22.27
2024-01-12T03:29:06.314Z,21.90
2024-01-12T03:31:34.344Z,22.00
2024-01-12T03:34:03.044Z,23.17
2024-01-12T03:36:30.188Z,22.93
2024-01-12T03:38:57.443Z,23.13
2024-01-12T03:41:24.565Z,22.10
2024-01-12T03:43:51.639Z,21.43
2024-01-12T03:46:18.766Z,21.90
2024-01-12T03:48:46.965Z,22.63
2024-01-12T03:51:14.223Z,23.37
2024-01-12T03:53:41.382Z,23.20
2024-01-12T03:56:08.494Z,22.80
2024-01-12T03:58:38.749Z,23.27
2024-01-12T04:01:09.112Z,23.37
2024-01-12T04:03:36.328Z,22.27
2024-01-12T04:06:12.061Z,23.37
2024-01-12T04:08:39.625Z,22.63
2024-01-12T04:11:07.148Z,21.73
2024-01-12T04:13:34.351Z,22.90
2024-01-12T04:16:01.505Z,23.20
2024-01-12T04:18:28.673Z,21.90
2024-01-12T04:20:55.995Z,22.63
2024-01-12T04:23:23.116Z,22.80
2024-01-12T04:25:50.196Z,22.00
2024-01-12T04:28:17.550Z,23.90
2024-01-12T04:30:44.634Z,22.03
2024-01-12T04:33:11.776Z,22.53
2024-01-12T04:35:39.009Z,22.63
2024-01-12T04:38:05.988Z,22.13
2024-01-12T04:40:32.964Z,22.53
2024-01-12T04:43:00.032Z,24.27
2024-01-12T04:45:27.086Z,23.87
2024-01-12T04:47:54.183Z,23.30
2024-01-12T04:50:21.607Z,23.40
2024-01-12T04:52:49.753Z,23.43
2024-01-12T04:55:16.761Z,22.90
2024-01-12T04:57:43.853Z,22.40
2024-01-12T05:00:11.538Z,23.17
2024-01-12T05:02:38.884Z,21.83
2024-01-12T05:05:06.992Z,21.17
2024-01-12T05:07:34.024Z,20.17
2024-01-12T05:10:01.062Z,22.60
2024-01-12T05:12:28.299Z,21.20
2024-01-12T05:14:55.351Z,20.43
2024-01-12T05:17:24.188Z,20.03
2024-01-12T05:19:51.511Z,20.03
2024-01-12T05:22:18.629Z,20.30
2024-01-12T05:24:45.751Z,20.13
2024-01-12T05:27:12.932Z,21.63
2024-01-12T05:29:39.983Z,20.77
2024-01-12T05:32:07.182Z,20.60
2024-01-12T05:34:34.348Z,19.93
2024-01-12T05:37:01.478Z,20.30
2024-01-12T05:39:28.706Z,19.87
2024-01-12T05:41:55.854Z,18.83
2024-01-12T05:44:23.046Z,18.20
2024-01-12T05:46:50.142Z,20.17
2024-01-12T05:49:17.297Z,19.40
2024-01-12T05:51:44.448Z,18.50
2024-01-12T05:54:11.618Z,19.47
2024-01-12T05:56:38.922Z,19.10
2024-01-12T05:59:06.241Z,20.33
2024-01-12T06:01:33.599Z,20.03
2024-01-12T06:04:00.889Z,19.53
2024-01-12T06:06:28.007Z,19.93
2024-01-12T06:08:55.139Z,19.47
2024-01-12T06:11:22.262Z,19.23
2024-01-12T06:13:49.234Z,19.10
2024-01-12T06:16:16.346Z,19.57
2024-01-12T06:18:43.679Z,18.90
2024-01-12T06:21:11.066Z,19.30
2024-01-12T06:23:38.386Z,18.07
2024-01-12T06:26:05.873Z,19.20
2024-01-12T06:28:32.875Z,19.37
2024-01-12T06:31:00.431Z,18.43
2024-01-12T06:33:27.753Z,19.37
2024-01-12T06:35:54.992Z,19.63
2024-01-12T06:38:22.042Z,18.93
2024-01-12T06:40:49.101Z,21.83
2024-01-12T06:43:16.295Z,19.47
2024-01-12T06:45:43.801Z,20.23
2024-01-12T06:48:11.554Z,21.87
2024-01-12T06:50:38.718Z,17.87
2024-01-12T06:53:09.797Z,18.87
2024-01-12T06:55:38.103Z,21.10
2024-01-12T06:58:05.202Z,18.40
2024-01-12T07:00:33.214Z,17.53
2024-01-12T07:03:00.446Z,17.33
2024-01-12T07:05:27.657Z,18.73
2024-01-12T07:07:54.793Z,19.80
2024-01-12T07:10:22.412Z,19.67
2024-01-12T07:12:53.300Z,20.60
2024-01-12T07:15:21.651Z,20.77
2024-01-12T07:17:51.056Z,20.20
2024-01-12T07:20:19.008Z,20.60
2024-01-12T07:22:46.905Z,19.60
2024-01-12T07:25:13.983Z,19.73
2024-01-12T07:27:43.541Z,20.20
2024-01-12T07:30:11.790Z,20.17
2024-01-12T07:32:39.044Z,21.27
2024-01-12T07:35:06.449Z,18.77
2024-01-12T07:37:33.501Z,20.83
2024-01-12T07:40:00.481Z,18.83
2024-01-12T07:42:27.595Z,19.10
2024-01-12T07:44:55.824Z,19.30
2024-01-12T07:47:23.318Z,18.33
2024-01-12T07:49:50.508Z,20.07
2024-01-12T07:52:19.357Z,19.40
2024-01-12T07:54:48.315Z,19.33
2024-01-12T07:57:15.387Z,19.23
2024-01-12T07:59:42.449Z,21.13
2024-01-12T08:02:09.541Z,23.23
2024-01-12T08:04:39.375Z,22.20
2024-01-12T08:07:07.954Z,22.30
2024-01-12T08:09:35.277Z,19.40
2024-01-12T08:12:03.835Z,18.10
2024-01-12T08:14:31.119Z,17.33
2024-01-12T08:16:58.325Z,17.70
2024-01-12T08:19:25.366Z,18.93
2024-01-12T08:21:56.141Z,19.20
2024-01-12T08:24:24.140Z,18.97
2024-01-12T08:26:51.575Z,15.93
2024-01-12T08:29:18.967Z,17.10
2024-01-12T08:31:46.232Z,16.93
2024-01-12T08:34:13.554Z,19.17
2024-01-12T08:36:40.831Z,16.40
2024-01-12T08:39:08.152Z,15.07
2024-01-12T08:41:35.225Z,15.50
2024-01-12T08:44:02.281Z,13.47
2024-01-12T08:46:29.319Z,14.60
2024-01-12T08:48:56.646Z,14.77
2024-01-12T08:51:25.124Z,14.63
2024-01-12T08:53:52.491Z,24.17
2024-01-12T08:56:19.713Z,12.97
2024-01-12T08:58:46.813Z,14.13
2024-01-12T09:01:14.910Z,11.33
2024-01-12T09:03:42.245Z,10.50
2024-01-12T09:06:10.825Z,10.87
2024-01-12T09:08:38.351Z,9.57
2024-01-12T09:11:05.428Z,11.30
2024-01-12T09:13:32.570Z,11.57
2024-01-12T09:15:59.654Z,11.70
2024-01-12T09:18:26.832Z,11.40
2024-01-12T09:20:54.086Z,10.80
2024-01-12T09:23:21.176Z,11.07
2024-01-12T09:25:51.638Z,11.53
2024-01-12T09:28:19.457Z,11.83
2024-01-12T09:30:47.715Z,12.73
2024-01-12T09:33:15.793Z,12.03
2024-01-12T09:35:43.165Z,14.17
2024-01-12T09:38:10.267Z,12.40
2024-01-12T09:40:37.558Z,12.37
2024-01-12T09:43:13.652Z,12.47
2024-01-12T09:45:44.950Z,11.90
2024-01-12T09:48:13.013Z,12.00
2024-01-12T09:50:42.402Z,11.63
2024-01-12T09:53:09.633Z,11.97
2024-01-12T09:55:36.705Z,10.43
2024-01-12T09:58:05.733Z,10.43
2024-01-12T10:00:36.368Z,13.80
2024-01-12T10:03:04.286Z,15.53
2024-01-12T10:05:31.563Z,11.10
2024-01-12T10:07:58.793Z,10.93
2024-01-12T10:10:28.610Z,10.07
2024-01-12T10:12:56.143Z,10.63
2024-01-12T10:15:23.154Z,10.37
2024-01-12T10:17:53.117Z,12.53
2024-01-12T10:20:22.529Z,11.80
2024-01-12T10:22:57.786Z,11.90
2024-01-12T10:25:25.779Z,9.90
2024-01-12T10:27:59.466Z,11.03
2024-01-12T10:30:28.585Z,9.87
2024-01-12T10:32:55.778Z,9.53
2024-01-12T10:35:23.044Z,8.70
2024-01-12T10:37:50.822Z,8.10
2024-01-12T10:40:18.550Z,8.30
2024-01-12T10:42:50.339Z,8.40
2024-01-12T10:45:27.262Z,7.40
2024-01-12T10:48:03.913Z,6.97
2024-01-12T10:50:36.379Z,6.67
2024-01-12T10:53:15.067Z,8.13
2024-01-12T10:55:51.248Z,6.87
2024-01-12T10:58:19.724Z,8.33
2024-01-12T11:00:47.656Z,7.70
2024-01-12T11:03:18.328Z,7.27
2024-01-12T11:05:46.055Z,6.40
2024-01-12T11:08:13.687Z,5.40
2024-01-12T11:10:47.771Z,5.40
2024-01-12T11:13:17.809Z,5.30
2024-01-12T11:15:45.686Z,5.83
2024-01-12T11:18:12.975Z,5.73
2024-01-12T11:20:40.288Z,5.30
2024-01-12T11:23:09.926Z,4.93
2024-01-12T11:25:37.405Z,6.17
2024-01-12T11:28:04.722Z,6.63
2024-01-12T11:30:44.557Z,6.00
2024-01-12T11:33:12.107Z,5.97
2024-01-12T11:35:40.913Z,4.93
2024-01-12T11:38:13.119Z,7.97
2024-01-12T11:40:45.277Z,6.20
2024-01-12T11:43:19.788Z,5.80
2024-01-12T11:45:48.810Z,6.13
2024-01-12T11:48:16.798Z,6.90
2024-01-12T11:50:44.235Z,6.23
2024-01-12T11:53:11.289Z,5.73
2024-01-12T11:55:40.571Z,5.17
2024-01-12T11:58:07.617Z,5.27
2024-01-12T12:00:34.787Z,5.27
2024-01-12T12:03:01.900Z,5.23
2024-01-12T12:05:30.557Z,6.10
2024-01-12T12:07:57.888Z,5.93
2024-01-12T12:10:33.346Z,4.90
2024-01-12T12:15:53.243Z,20.07
2024-01-12T12:18:20.650Z,6.87
2024-01-12T12:20:49.291Z,6.73
2024-01-12T12:31:49.757Z,6.27
2024-01-12T12:34:18.237Z,6.43
2024-01-12T12:36:45.461Z,8.33
2024-01-12T12:39:12.714Z,12.30
2024-01-12T12:41:40.258Z,8.83
2024-01-12T12:44:07.461Z,6.97
2024-01-12T12:46:34.686Z,7.13
2024-01-12T12:49:02.023Z,7.40
2024-01-12T12:54:22.181Z,7.03
2024-01-12T12:56:50.647Z,7.20
2024-01-12T12:59:17.821Z,7.43
2024-01-12T13:01:44.951Z,7.20
2024-01-12T13:04:13.966Z,7.33
2024-01-12T13:06:43.883Z,6.77
2024-01-12T13:09:11.280Z,7.80
2024-01-12T13:11:38.414Z,7.20
2024-01-12T13:14:05.791Z,7.53
2024-01-12T13:16:33.246Z,7.57
2024-01-12T13:19:10.873Z,6.40
2024-01-12T13:21:45.379Z,6.17
2024-01-12T13:24:13.227Z,6.97
2024-01-12T13:26:40.389Z,5.90
2024-01-12T13:29:09.827Z,6.53
2024-01-12T13:31:43.269Z,6.67
2024-01-12T13:34:13.425Z,6.63
2024-01-12T13:36:45.795Z,6.23
2024-01-12T13:39:12.972Z,6.67
2024-01-12T13:41:41.267Z,6.83
2024-01-12T13:44:08.404Z,7.10
2024-01-12T13:46:35.520Z,7.33
2024-01-12T13:49:02.929Z,6.73
2024-01-12T13:51:30.266Z,7.60
2024-01-12T13:53:57.936Z,6.97
2024-01-12T13:56:24.984Z,7.67
2024-01-12T13:58:52.033Z,7.47
2024-01-12T14:01:19.117Z,7.33
2024-01-12T14:03:49.069Z,6.27
2024-01-12T14:06:16.872Z,6.63
2024-01-12T14:08:44.888Z,6.60
2024-01-12T14:11:12.904Z,6.40
2024-01-12T14:13:40.095Z,7.27
2024-01-12T14:16:07.781Z,6.67
2024-01-12T14:18:35.087Z,6.30
2024-01-12T14:21:02.206Z,6.63
2024-01-12T14:23:29.401Z,6.37
2024-01-12T14:25:56.581Z,6.70
2024-01-12T14:28:32.004Z,7.60
2024-01-12T14:31:02.388Z,7.80
2024-01-12T14:33:34.681Z,6.97
2024-01-12T14:36:06.155Z,6.43
2024-01-12T14:38:33.421Z,7.40
2024-01-12T14:41:00.481Z,6.27
2024-01-12T14:43:27.924Z,7.10
2024-01-12T14:45:55.013Z,7.20
2024-01-12T14:48:25.604Z,7.00
2024-01-12T14:50:53.340Z,7.60
2024-01-12T14:53:20.505Z,7.20
2024-01-12T14:55:48.516Z,7.50
2024-01-12T14:58:15.509Z,6.17
2024-01-12T15:00:42.704Z,5.20
2024-01-12T15:03:10.043Z,5.33
2024-01-12T15:05:37.989Z,6.00
2024-01-12T15:08:05.604Z,5.80
2024-01-12T15:10:32.784Z,6.20
2024-01-12T15:12:59.945Z,5.90
2024-01-12T15:15:27.560Z,6.87
2024-01-12T15:17:54.851Z,6.83
2024-01-12T15:20:22.273Z,6.10
2024-01-12T15:22:49.448Z,7.20
2024-01-12T15:25:16.609Z,7.00
2024-01-12T15:27:44.547Z,6.63
2024-01-12T15:30:12.245Z,7.10
2024-01-12T15:32:39.804Z,7.50
2024-01-12T15:35:07.584Z,7.33
2024-01-12T15:37:34.673Z,7.43
2024-01-12T15:40:02.016Z,7.83
2024-01-12T15:42:35.385Z,8.57
2024-01-12T15:45:09.662Z,8.60
2024-01-12T15:47:37.801Z,8.27
2024-01-12T15:50:05.962Z,10.57
2024-01-12T15:52:33.107Z,9.10
2024-01-12T15:55:00.248Z,10.30
2024-01-12T15:57:27.373Z,9.20
2024-01-12T15:59:54.531Z,9.73
2024-01-12T16:02:21.661Z,10.30
2024-01-12T16:07:43.933Z,9.43
2024-01-12T16:10:11.432Z,8.90
2024-01-12T16:12:38.542Z,8.40
2024-01-12T16:15:08.727Z,8.67
2024-01-12T16:17:36.486Z,9.40
2024-01-12T16:20:04.048Z,7.50
2024-01-12T16:22:31.247Z,7.40
2024-01-12T16:24:59.037Z,7.67
2024-01-12T16:27:27.967Z,8.43
2024-01-12T16:29:55.350Z,8.00
2024-01-12T16:32:22.558Z,9.80
2024-01-12T16:34:49.705Z,7.33
2024-01-12T16:37:16.829Z,9.53
2024-01-12T16:39:45.144Z,9.73
2024-01-12T16:42:13.134Z,8.63
2024-01-12T16:44:40.622Z,8.40
2024-01-12T16:47:07.692Z,8.30
2024-01-12T16:49:38.133Z,7.97
2024-01-12T16:52:05.761Z,8.10
2024-01-12T16:54:32.806Z,8.50
2024-01-12T16:57:00.023Z,7.83
2024-01-12T16:59:30.756Z,8.37
2024-01-12T17:01:57.840Z,8.40
2024-01-12T17:04:24.999Z,8.20
2024-01-12T17:06:55.955Z,9.07
2024-01-12T17:09:23.827Z,9.20
2024-01-12T17:11:51.123Z,10.07
2024-01-12T17:14:18.273Z,8.77
2024-01-12T17:16:47.451Z,9.67
2024-01-12T17:19:14.736Z,10.37
2024-01-12T17:21:41.894Z,11.27
2024-01-12T17:24:10.437Z,9.20
2024-01-12T17:26:39.572Z,10.10
2024-01-12T17:29:06.790Z,10.97
2024-01-12T17:31:34.006Z,10.33
2024-01-12T17:34:01.509Z,8.40
2024-01-12T17:36:28.591Z,9.40
2024-01-12T17:38:55.817Z,9.07
2024-01-12T17:41:24.725Z,10.87
2024-01-12T17:43:52.456Z,9.77
2024-01-12T17:46:19.835Z,10.20
2024-01-12T17:48:47.454Z,9.77
2024-01-12T17:51:16.890Z,9.67
2024-01-12T17:53:45.031Z,9.90
2024-01-12T17:56:12.951Z,9.47
2024-01-12T17:58:40.474Z,9.97
2024-01-12T18:01:08.404Z,9.37
2024-01-12T18:03:35.695Z,10.70
2024-01-12T18:06:03.900Z,13.65
2024-01-12T18:08:31.213Z,10.40
2024-01-12T18:10:58.322Z,11.30
2024-01-12T18:13:25.670Z,10.37
2024-01-12T18:15:52.840Z,10.90
2024-01-12T18:18:20.309Z,11.67
2024-01-12T18:20:47.646Z,11.17
2024-01-12T18:23:14.833Z,11.27
2024-01-12T18:25:41.875Z,11.43
2024-01-12T18:28:08.991Z,10.30
2024-01-12T18:30:36.143Z,10.10
2024-01-12T18:33:04.768Z,10.17
2024-01-12T18:35:32.293Z,10.07
2024-01-12T18:37:59.438Z,11.03
2024-01-12T18:40:26.505Z,11.63
2024-01-12T18:42:53.649Z,11.13
2024-01-12T18:45:20.744Z,10.80
2024-01-12T18:47:48.128Z,11.57
2024-01-12T18:50:15.317Z,12.30
2024-01-12T18:52:45.360Z,12.23
2024-01-12T18:55:12.361Z,11.57
2024-01-12T18:57:39.469Z,16.40
2024-01-12T19:00:07.341Z,15.97
2024-01-12T19:02:34.488Z,13.33
2024-01-12T19:05:01.744Z,13.37
2024-01-12T19:07:29.212Z,11.57
2024-01-12T19:09:56.360Z,11.60
2024-01-12T19:12:23.951Z,11.57
2024-01-12T19:14:51.173Z,11.90
2024-01-12T19:17:18.266Z,11.67
2024-01-12T19:19:45.976Z,11.20
2024-01-12T19:22:13.141Z,10.70
2024-01-12T19:24:45.129Z,11.97
2024-01-12T19:27:13.139Z,11.77
2024-01-12T19:29:40.347Z,11.70
2024-01-12T19:32:11.779Z,11.63
2024-01-12T19:34:42.595Z,11.80
2024-01-12T19:37:10.127Z,12.03
2024-01-12T19:39:37.825Z,11.20
2024-01-12T19:42:05.636Z,12.50
2024-01-12T19:44:32.775Z,11.80
2024-01-12T19:46:59.787Z,13.40
2024-01-12T19:49:27.215Z,14.17
2024-01-12T19:51:54.251Z,13.10
2024-01-12T19:54:21.340Z,13.83
2024-01-12T19:56:48.560Z,12.60
2024-01-12T19:59:16.872Z,13.17
2024-01-12T20:01:44.960Z,13.67
2024-01-12T20:04:12.556Z,13.50
2024-01-12T20:06:39.949Z,14.70
2024-01-12T20:09:07.232Z,13.73
2024-01-12T20:11:34.739Z,13.10
2024-01-12T20:14:02.112Z,12.33
2024-01-12T20:16:31.343Z,12.47
2024-01-12T20:18:59.922Z,16.37
2024-01-12T20:21:28.690Z,14.17
2024-01-12T20:23:55.988Z,14.60
2024-01-12T20:26:24.724Z,13.83
2024-01-12T20:28:52.352Z,13.77
2024-01-12T20:31:19.597Z,13.43
2024-01-12T20:33:47.246Z,15.97
2024-01-12T20:36:14.684Z,16.23
2024-01-12T20:38:41.787Z,14.30
2024-01-12T20:41:09.268Z,13.37
2024-01-12T20:43:36.325Z,13.17
2024-01-12T20:46:03.485Z,13.77
2024-01-12T20:48:30.810Z,13.90
2024-01-12T20:50:58.895Z,13.97
2024-01-12T20:53:26.078Z,14.17
2024-01-12T20:55:53.164Z,13.40
2024-01-12T20:58:20.401Z,12.93
2024-01-12T21:00:47.713Z,12.57
2024-01-12T21:03:15.034Z,12.63
2024-01-12T21:05:42.704Z,12.47
2024-01-12T21:08:09.876Z,13.53
2024-01-12T21:10:37.010Z,13.53
2024-01-12T21:13:04.230Z,14.40
2024-01-12T21:15:32.728Z,14.03
2024-01-12T21:18:00.588Z,14.40
2024-01-12T21:20:27.758Z,13.80
2024-01-12T21:22:54.813Z,14.40
2024-01-12T21:25:22.184Z,15.23
2024-01-12T21:27:49.227Z,13.93
2024-01-12T21:30:16.485Z,13.80
2024-01-12T21:32:43.850Z,14.13
2024-01-12T21:35:11.117Z,13.00
2024-01-12T21:37:38.192Z,12.90
2024-01-12T21:40:07.304Z,11.87
2024-01-12T21:42:34.419Z,12.40
2024-01-12T21:45:01.561Z,14.33
2024-01-12T21:47:28.923Z,14.33
2024-01-12T21:49:56.185Z,13.77
2024-01-12T21:52:23.238Z,13.87
2024-01-12T21:54:50.439Z,15.60
2024-01-12T21:57:17.544Z,15.43
2024-01-12T21:59:44.834Z,15.03
2024-01-12T22:02:12.050Z,17.07
2024-01-12T22:04:39.094Z,20.60
2024-01-12T22:07:06.400Z,16.70
2024-01-12T22:09:33.584Z,16.23
2024-01-12T22:12:00.764Z,22.33
2024-01-12T22:14:27.832Z,16.23
2024-01-12T22:16:56.028Z,15.63
2024-01-12T22:19:23.411Z,14.60
2024-01-12T22:21:51.024Z,14.63
2024-01-12T22:24:18.808Z,15.70
2024-01-12T22:26:46.024Z,21.40
2024-01-12T22:29:14.024Z,16.67
2024-01-12T22:31:41.198Z,16.23
2024-01-12T22:34:08.360Z,15.03
2024-01-12T22:36:35.879Z,15.40
2024-01-12T22:39:03.039Z,17.97
2024-01-12T22:41:30.124Z,25.90
2024-01-12T22:43:57.168Z,16.37
2024-01-12T22:46:24.284Z,15.27
2024-01-12T22:48:51.438Z,15.73
2024-01-12T22:51:18.557Z,15.43
2024-01-12T22:53:45.654Z,15.60
2024-01-12T22:56:14.015Z,17.80
2024-01-12T22:58:41.722Z,17.20
2024-01-12T23:01:08.842Z,15.70
2024-01-12T23:03:36.036Z,14.97
2024-01-12T23:06:03.593Z,15.53
2024-01-12T23:08:30.774Z,14.73
2024-01-12T23:10:57.812Z,14.47
2024-01-12T23:13:24.905Z,14.93
2024-01-12T23:15:52.036Z,14.57
2024-01-12T23:18:19.394Z,14.93
2024-01-12T23:20:46.620Z,15.07
2024-01-12T23:23:13.638Z,13.67
2024-01-12T23:25:40.627Z,11.93
2024-01-12T23:28:07.810Z,13.17
2024-01-12T23:30:35.139Z,12.67
2024-01-12T23:33:02.480Z,12.50
2024-01-12T23:35:29.788Z,13.33
2024-01-12T23:37:56.860Z,12.93
2024-01-12T23:40:23.937Z,11.33
2024-01-12T23:42:50.976Z,12.70
2024-01-12T23:45:18.069Z,12.27
2024-01-12T23:47:46.008Z,12.23
2024-01-12T23:50:13.642Z,13.17
2024-01-12T23:52:40.658Z,13.40
2024-01-12T23:55:11.224Z,13.50
2024-01-12T23:57:38.290Z,12.60
